createdAt,value
2022-10-18T00:02:58.714Z,1.25
2022-10-18T00:06:06.908Z,1.30
2022-10-18T00:09:17.547Z,1.17
2022-10-18T00:12:25.120Z,1.17
2022-10-18T00:15:32.704Z,1.10
2022-10-18T00:18:40.163Z,1.30
2022-10-18T00:21:47.629Z,1.73
2022-10-18T00:24:57.869Z,1.30
2022-10-18T00:28:05.827Z,1.20
2022-10-18T00:31:15.147Z,1.20
2022-10-18T00:34:22.637Z,1.17
2022-10-18T00:37:30.109Z,1.10
2022-10-18T00:40:40.530Z,1.48
2022-10-18T00:43:57.882Z,1.27
2022-10-18T00:47:08.333Z,1.33
2022-10-18T00:50:16.532Z,1.23
2022-10-18T00:53:26.417Z,1.25
2022-10-18T00:56:37.550Z,1.17
2022-10-18T00:59:46.002Z,1.05
2022-10-18T01:02:51.318Z,1.10
2022-10-18T01:05:58.891Z,1.38
2022-10-18T01:09:15.271Z,1.20
2022-10-18T01:12:38.187Z,1.23
2022-10-18T01:15:57.975Z,1.02
2022-10-18T01:19:10.301Z,1.25
2022-10-18T01:22:25.582Z,1.23
2022-10-18T01:25:43.648Z,1.08
2022-10-18T01:29:02.523Z,1.20
2022-10-18T01:32:17.621Z,1.25
2022-10-18T01:35:29.636Z,1.27
2022-10-18T01:38:40.251Z,1.40
2022-10-18T01:41:50.134Z,1.17
2022-10-18T01:48:07.188Z,1.40
2022-10-18T01:51:14.948Z,1.20
2022-10-18T01:54:25.620Z,1.42
2022-10-18T01:57:39.161Z,1.40
2022-10-18T02:00:47.179Z,1.20
2022-10-18T02:04:01.269Z,1.08
2022-10-18T02:07:17.892Z,1.27
2022-10-18T02:10:32.559Z,1.30
2022-10-18T02:13:44.529Z,1.08
2022-10-18T02:16:55.246Z,1.10
2022-10-18T02:20:06.524Z,1.27
2022-10-18T02:23:14.867Z,1.00
2022-10-18T02:26:22.673Z,1.33
2022-10-18T02:29:30.261Z,1.02
2022-10-18T02:32:43.986Z,1.20
2022-10-18T02:36:00.234Z,0.90
2022-10-18T02:39:14.775Z,1.08
2022-10-18T02:42:22.277Z,1.05
2022-10-18T02:45:30.244Z,1.20
2022-10-18T02:48:37.929Z,1.40
2022-10-18T02:51:48.211Z,1.40
2022-10-18T02:54:55.693Z,1.23
2022-10-18T02:58:03.139Z,1.15
2022-10-18T03:01:08.876Z,1.35
2022-10-18T03:04:16.432Z,1.35
2022-10-18T03:07:26.764Z,1.55
2022-10-18T03:10:34.141Z,1.40
2022-10-18T03:13:41.753Z,1.45
2022-10-18T03:16:49.187Z,1.40
2022-10-18T03:19:56.520Z,1.70
2022-10-18T03:23:07.481Z,1.50
2022-10-18T03:26:14.994Z,1.40
2022-10-18T03:29:22.762Z,1.58
2022-10-18T03:32:30.278Z,1.50
2022-10-18T03:35:37.826Z,1.27
2022-10-18T03:38:48.017Z,1.52
2022-10-18T03:41:55.680Z,1.38
2022-10-18T03:45:03.096Z,1.60
2022-10-18T03:48:10.994Z,1.42
2022-10-18T03:51:18.397Z,1.48
2022-10-18T03:54:28.959Z,1.33
2022-10-18T03:57:36.295Z,1.60
2022-10-18T04:00:43.684Z,1.42
2022-10-18T04:03:50.931Z,1.40
2022-10-18T04:06:58.322Z,1.27
2022-10-18T04:10:09.257Z,1.40
2022-10-18T04:13:16.576Z,1.30
2022-10-18T04:16:24.140Z,1.42
2022-10-18T04:19:31.788Z,1.30
2022-10-18T04:22:39.376Z,1.27
2022-10-18T04:25:49.598Z,1.20
2022-10-18T04:28:56.983Z,1.10
2022-10-18T04:32:04.400Z,1.25
2022-10-18T04:35:13.174Z,1.45
2022-10-18T04:38:20.798Z,1.10
2022-10-18T04:41:31.199Z,1.30
2022-10-18T04:44:39.417Z,1.40
2022-10-18T04:47:46.805Z,1.20
2022-10-18T04:50:54.886Z,1.08
2022-10-18T04:54:02.308Z,0.88
2022-10-18T04:57:12.606Z,1.20
2022-10-18T05:00:20.297Z,1.13
2022-10-18T05:03:27.627Z,1.30
2022-10-18T05:06:34.915Z,1.10
2022-10-18T05:09:42.208Z,1.17
2022-10-18T05:12:52.259Z,1.17
2022-10-18T05:19:08.589Z,1.13
2022-10-18T05:22:16.054Z,1.00
2022-10-18T05:25:23.522Z,1.00
2022-10-18T05:28:39.516Z,0.98
2022-10-18T05:31:47.846Z,1.00
2022-10-18T05:34:55.203Z,0.95
2022-10-18T05:38:04.973Z,1.05
2022-10-18T05:41:12.659Z,0.90
2022-10-18T05:44:23.344Z,1.10
2022-10-18T05:47:30.904Z,1.10
2022-10-18T05:50:40.341Z,0.90
2022-10-18T05:53:48.085Z,0.90
2022-10-18T05:56:55.400Z,0.95
2022-10-18T06:00:05.753Z,0.90
2022-10-18T06:03:13.253Z,1.00
2022-10-18T06:06:20.877Z,1.00
2022-10-18T06:09:28.912Z,1.00
2022-10-18T06:12:36.295Z,0.90
2022-10-18T06:15:46.652Z,0.95
2022-10-18T06:18:56.073Z,1.00
2022-10-18T06:22:03.465Z,0.85
2022-10-18T06:25:12.441Z,1.20
2022-10-18T06:28:19.896Z,1.08
2022-10-18T06:31:30.171Z,1.00
2022-10-18T06:34:37.977Z,0.98
2022-10-18T06:37:45.464Z,0.93
2022-10-18T06:40:53.130Z,1.17
2022-10-18T06:44:04.265Z,0.85
2022-10-18T06:47:14.618Z,0.93
2022-10-18T06:50:22.244Z,1.08
2022-10-18T06:53:34.396Z,1.13
2022-10-18T06:56:42.505Z,1.00
2022-10-18T06:59:50.296Z,1.15
2022-10-18T07:03:00.637Z,1.25
2022-10-18T07:06:10.100Z,1.10
2022-10-18T07:09:17.493Z,1.10
2022-10-18T07:12:25.112Z,1.23
2022-10-18T07:18:45.647Z,1.05
2022-10-18T07:21:53.077Z,1.20
2022-10-18T07:25:00.562Z,1.17
2022-10-18T07:28:08.418Z,1.33
2022-10-18T07:31:16.431Z,1.00
2022-10-18T07:34:26.955Z,1.35
2022-10-18T07:37:34.644Z,1.10
2022-10-18T07:40:42.269Z,1.05
2022-10-18T07:43:51.415Z,1.27
2022-10-18T07:46:58.990Z,1.17
2022-10-18T07:50:10.965Z,1.40
2022-10-18T07:53:19.040Z,1.08
2022-10-18T07:56:26.623Z,1.30
2022-10-18T07:59:34.259Z,1.13
2022-10-18T08:02:41.708Z,1.30
2022-10-18T08:05:55.357Z,1.23
2022-10-18T08:09:02.969Z,1.40
2022-10-18T08:12:10.284Z,1.10
2022-10-18T08:15:18.143Z,1.13
2022-10-18T08:18:25.678Z,1.45
2022-10-18T08:21:35.937Z,1.40
2022-10-18T08:24:43.400Z,1.08
2022-10-18T08:27:50.895Z,0.95
2022-10-18T08:30:58.659Z,1.40
2022-10-18T08:34:06.126Z,1.38
2022-10-18T08:37:16.517Z,1.50
2022-10-18T08:40:26.674Z,1.40
2022-10-18T08:43:40.895Z,1.25
2022-10-18T08:46:51.023Z,1.40
2022-10-18T08:50:01.885Z,1.27
2022-10-18T08:53:21.178Z,1.30
2022-10-18T08:56:30.049Z,1.60
2022-10-18T08:59:41.722Z,1.42
2022-10-18T09:03:05.621Z,1.63
2022-10-18T09:06:23.559Z,1.83
2022-10-18T09:09:42.235Z,1.45
2022-10-18T09:13:10.951Z,1.80
2022-10-18T09:16:20.962Z,1.65
2022-10-18T09:22:52.251Z,1.25
2022-10-18T09:26:09.835Z,1.52
2022-10-18T09:29:38.157Z,1.80
2022-10-18T09:32:54.865Z,1.80
2022-10-18T09:36:06.108Z,1.42
2022-10-18T09:39:17.531Z,1.17
2022-10-18T09:42:32.879Z,2.10
2022-10-18T09:45:43.561Z,1.58
2022-10-18T09:48:56.223Z,1.50
2022-10-18T09:52:10.753Z,1.60
2022-10-18T09:55:24.381Z,1.80
2022-10-18T09:58:47.510Z,1.50
2022-10-18T10:01:55.052Z,1.60
2022-10-18T10:05:02.615Z,1.60
2022-10-18T10:08:10.048Z,1.77
2022-10-18T10:11:34.399Z,1.75
2022-10-18T10:14:49.177Z,1.65
2022-10-18T10:18:01.867Z,1.52
2022-10-18T10:21:16.370Z,1.70
2022-10-18T10:24:30.440Z,1.50
2022-10-18T10:27:44.107Z,1.48
2022-10-18T10:30:54.395Z,1.60
2022-10-18T10:34:04.053Z,1.33
2022-10-18T10:37:28.821Z,1.58
2022-10-18T10:40:38.364Z,1.50
2022-10-18T10:43:46.385Z,1.40
2022-10-18T10:46:57.724Z,2.00
2022-10-18T10:50:14.212Z,1.40
2022-10-18T10:53:35.551Z,1.30
2022-10-18T10:57:02.469Z,1.52
2022-10-18T11:00:11.531Z,1.30
2022-10-18T11:03:30.063Z,1.58
2022-10-18T11:06:46.078Z,1.35
2022-10-18T11:10:02.155Z,1.25
2022-10-18T11:13:23.875Z,1.40
2022-10-18T11:16:38.839Z,1.25
2022-10-18T11:20:02.559Z,2.63
2022-10-18T11:23:11.776Z,2.75
2022-10-18T11:26:31.994Z,2.03
2022-10-18T11:29:51.886Z,1.88
2022-10-18T11:33:07.563Z,2.10
2022-10-18T11:39:45.823Z,2.33
2022-10-18T11:43:02.654Z,1.75
2022-10-18T11:46:15.524Z,1.70
2022-10-18T11:49:48.051Z,1.67
2022-10-18T11:53:06.174Z,1.60
2022-10-18T11:56:21.619Z,1.52
2022-10-18T11:59:35.671Z,1.48
2022-10-18T12:03:05.396Z,2.17
2022-10-18T12:06:18.236Z,1.67
2022-10-18T12:09:31.940Z,1.55
2022-10-18T12:12:53.378Z,1.40
2022-10-18T12:16:01.572Z,1.50
2022-10-18T12:19:23.292Z,1.38
2022-10-18T12:22:40.510Z,1.48
2022-10-18T12:25:54.818Z,1.40
2022-10-18T12:29:20.728Z,1.40
2022-10-18T12:32:31.500Z,1.58
2022-10-18T12:35:51.375Z,1.40
2022-10-18T12:39:00.689Z,1.40
2022-10-18T12:42:21.877Z,1.40
2022-10-18T12:45:34.469Z,1.40
2022-10-18T12:48:45.677Z,1.30
2022-10-18T12:51:55.645Z,1.52
2022-10-18T12:55:14.054Z,1.15
2022-10-18T12:58:33.757Z,1.20
2022-10-18T13:02:10.843Z,1.05
2022-10-18T13:05:58.417Z,1.10
2022-10-18T13:09:35.583Z,1.00
2022-10-18T13:13:38.649Z,1.20
2022-10-18T13:16:54.521Z,1.00
2022-10-18T13:20:31.256Z,1.13
2022-10-18T13:23:52.177Z,1.10
2022-10-18T13:27:36.591Z,1.05
2022-10-18T13:30:54.315Z,1.20
2022-10-18T13:34:38.479Z,0.77
2022-10-18T13:37:46.600Z,1.10
2022-10-18T13:41:04.957Z,1.05
2022-10-18T13:44:26.082Z,0.85
2022-10-18T13:47:37.642Z,0.90
2022-10-18T13:50:50.494Z,0.70
2022-10-18T13:54:05.685Z,0.90
2022-10-18T13:57:34.835Z,0.90
2022-10-18T14:00:54.864Z,0.90
2022-10-18T14:07:31.153Z,0.90
2022-10-18T14:11:01.295Z,0.80
2022-10-18T14:14:16.648Z,1.02
2022-10-18T14:17:31.576Z,0.82
2022-10-18T14:21:01.439Z,0.93
2022-10-18T14:24:22.379Z,0.90
2022-10-18T14:27:32.827Z,0.90
2022-10-18T14:30:41.697Z,0.68
2022-10-18T14:33:56.315Z,0.80
2022-10-18T14:37:05.185Z,0.70
2022-10-18T14:40:30.768Z,0.77
2022-10-18T14:43:38.380Z,0.63
2022-10-18T14:46:46.926Z,0.73
2022-10-18T14:49:57.932Z,0.90
2022-10-18T14:53:09.366Z,0.88
2022-10-18T14:56:26.635Z,0.88
2022-10-18T14:59:37.661Z,0.70
2022-10-18T15:02:43.890Z,0.73
2022-10-18T15:05:59.834Z,0.85
2022-10-18T15:09:09.131Z,1.00
2022-10-18T15:12:19.395Z,0.68
2022-10-18T15:15:32.288Z,0.85
2022-10-18T15:18:40.615Z,0.75
2022-10-18T15:22:19.809Z,0.70
2022-10-18T15:25:32.123Z,0.65
2022-10-18T15:28:51.405Z,0.68
2022-10-18T15:31:59.492Z,1.00
2022-10-18T15:35:13.758Z,0.80
2022-10-18T15:38:32.200Z,0.63
2022-10-18T15:41:49.438Z,0.70
2022-10-18T15:44:59.975Z,0.63
2022-10-18T15:48:27.300Z,0.70
2022-10-18T15:51:50.601Z,0.65
2022-10-18T15:54:58.590Z,0.80
2022-10-18T15:58:10.792Z,0.80
2022-10-18T16:01:25.994Z,0.73
2022-10-18T16:04:36.143Z,0.73
2022-10-18T16:07:43.758Z,0.60
2022-10-18T16:10:51.366Z,0.70
2022-10-18T16:14:00.413Z,0.70
2022-10-18T16:17:16.868Z,0.68
2022-10-18T16:23:57.236Z,0.60
2022-10-18T16:27:04.898Z,0.77
2022-10-18T16:30:16.442Z,0.80
2022-10-18T16:33:28.557Z,0.70
2022-10-18T16:36:35.577Z,1.05
2022-10-18T16:39:43.731Z,0.90
2022-10-18T16:42:52.081Z,0.70
2022-10-18T16:46:00.003Z,0.70
2022-10-18T16:49:22.030Z,0.90
2022-10-18T16:52:37.500Z,0.70
2022-10-18T16:55:50.690Z,0.80
2022-10-18T16:58:59.186Z,0.77
2022-10-18T17:02:09.458Z,0.65
2022-10-18T17:05:20.449Z,0.80
2022-10-18T17:08:29.486Z,0.80
2022-10-18T17:11:37.080Z,0.87
2022-10-18T17:14:44.678Z,0.50
2022-10-18T17:17:53.019Z,0.80
2022-10-18T17:21:03.805Z,0.73
2022-10-18T17:24:13.395Z,0.85
2022-10-18T17:27:24.117Z,0.60
2022-10-18T17:30:29.937Z,0.80
2022-10-18T17:33:38.074Z,0.82
2022-10-18T17:36:48.823Z,1.48
2022-10-18T17:39:56.476Z,0.60
2022-10-18T17:43:02.627Z,0.63
2022-10-18T17:46:10.325Z,0.70
2022-10-18T17:49:18.053Z,1.05
2022-10-18T17:52:26.493Z,1.00
2022-10-18T17:55:34.394Z,0.88
2022-10-18T17:58:43.750Z,0.80
2022-10-18T18:01:51.628Z,0.73
2022-10-18T18:04:59.148Z,1.00
2022-10-18T18:08:09.706Z,0.90
2022-10-18T18:11:17.575Z,1.10
2022-10-18T18:14:25.498Z,0.80
2022-10-18T18:17:34.514Z,0.90
2022-10-18T18:20:55.167Z,1.20
2022-10-18T18:24:04.005Z,0.93
2022-10-18T18:27:11.556Z,0.90
2022-10-18T18:30:19.145Z,0.80
2022-10-18T18:33:26.704Z,0.73
2022-10-18T18:36:34.250Z,0.90
2022-10-18T18:39:44.634Z,0.75
2022-10-18T18:43:07.081Z,1.08
2022-10-18T18:46:20.168Z,0.90
2022-10-18T18:49:27.836Z,0.68
2022-10-18T18:52:35.635Z,0.80
2022-10-18T18:55:46.354Z,1.08
2022-10-18T18:58:58.989Z,1.00
2022-10-18T19:02:06.887Z,1.08
2022-10-18T19:05:14.626Z,1.10
2022-10-18T19:08:22.289Z,1.02
2022-10-18T19:11:34.511Z,0.80
2022-10-18T19:14:42.019Z,0.90
2022-10-18T19:17:49.672Z,0.90
2022-10-18T19:20:57.052Z,1.00
2022-10-18T19:24:05.511Z,1.00
2022-10-18T19:27:15.972Z,1.33
2022-10-18T19:30:23.703Z,1.00
2022-10-18T19:33:41.475Z,1.00
2022-10-18T19:36:56.323Z,1.10
2022-10-18T19:40:03.971Z,1.10
2022-10-18T19:43:14.458Z,1.23
2022-10-18T19:46:22.224Z,1.20
2022-10-18T19:49:30.172Z,0.90
2022-10-18T19:52:37.776Z,1.10
2022-10-18T19:55:45.411Z,1.08
2022-10-18T19:58:59.220Z,1.10
2022-10-18T20:02:07.552Z,1.30
2022-10-18T20:05:15.035Z,1.38
2022-10-18T20:08:22.695Z,1.20
2022-10-18T20:11:31.768Z,1.23
2022-10-18T20:14:42.009Z,1.20
2022-10-18T20:21:02.015Z,1.20
2022-10-18T20:24:10.780Z,1.20
2022-10-18T20:27:18.478Z,1.27
2022-10-18T20:30:28.991Z,1.13
2022-10-18T20:33:38.143Z,1.30
2022-10-18T20:36:45.955Z,1.40
2022-10-18T20:39:53.881Z,1.20
2022-10-18T20:43:04.378Z,1.10
2022-10-18T20:46:14.932Z,1.30
2022-10-18T20:49:22.639Z,1.20
2022-10-18T20:52:30.340Z,1.33
2022-10-18T20:55:39.031Z,1.30
2022-10-18T20:58:48.447Z,1.25
2022-10-18T21:01:58.644Z,1.25
2022-10-18T21:05:07.074Z,1.20
2022-10-18T21:08:14.608Z,1.20
2022-10-18T21:11:22.094Z,1.40
2022-10-18T21:14:29.998Z,1.58
2022-10-18T21:17:40.232Z,1.33
2022-10-18T21:20:53.746Z,1.30
2022-10-18T21:24:08.036Z,1.45
2022-10-18T21:27:20.504Z,1.23
2022-10-18T21:30:34.741Z,1.25
2022-10-18T21:33:58.896Z,1.40
2022-10-18T21:37:26.349Z,1.20
2022-10-18T21:41:27.598Z,1.23
2022-10-18T21:44:42.914Z,1.38
2022-10-18T21:47:53.238Z,1.25
2022-10-18T21:51:06.735Z,1.25
2022-10-18T21:54:16.218Z,1.30
2022-10-18T21:57:24.619Z,1.27
2022-10-18T22:00:30.999Z,1.10
2022-10-18T22:03:45.088Z,1.30
2022-10-18T22:07:02.549Z,1.17
2022-10-18T22:10:16.046Z,1.40
2022-10-18T22:16:58.285Z,1.13
2022-10-18T22:20:05.640Z,1.25
2022-10-18T22:23:21.480Z,1.25
2022-10-18T22:26:33.338Z,1.20
2022-10-18T22:29:41.135Z,1.20
2022-10-18T22:32:49.404Z,1.20
2022-10-18T22:35:57.200Z,1.20
2022-10-18T22:39:06.006Z,1.20
2022-10-18T22:42:13.745Z,1.05
2022-10-18T22:45:20.146Z,1.30
2022-10-18T22:48:28.078Z,1.35
2022-10-18T22:51:40.600Z,1.10
2022-10-18T22:54:50.927Z,1.30
2022-10-18T22:57:58.366Z,1.38
2022-10-18T23:01:07.610Z,1.08
2022-10-18T23:04:17.850Z,1.05
2022-10-18T23:07:25.339Z,1.10
2022-10-18T23:10:36.586Z,1.38
2022-10-18T23:13:44.255Z,1.30
2022-10-18T23:16:49.656Z,1.00
2022-10-18T23:19:58.385Z,1.20
2022-10-18T23:23:04.191Z,1.23
2022-10-18T23:26:17.265Z,1.33
2022-10-18T23:29:23.122Z,1.02
2022-10-18T23:32:33.624Z,1.30
2022-10-18T23:35:42.039Z,1.02
2022-10-18T23:38:50.151Z,1.30
2022-10-18T23:42:07.356Z,1.30
2022-10-18T23:45:15.106Z,1.15
2022-10-18T23:48:20.740Z,1.10
2022-10-18T23:51:28.515Z,1.08
2022-10-18T23:54:33.946Z,1.20
2022-10-18T23:57:44.458Z,1.38
